Time;durP1;ratioP1;P1;durP2;ratioP2;P2;SDS_P1;SDS_P2;PMS_P1;PMS_P2;Temp;Humidity;BMP_temperature;BMP_pressure;BME280_temperature;BME280_humidity;BME280_pressure;Samples;Min_cycle;Max_cycle;Signal;HPM_P1;HPM_P2
2022/01/30 00:00:07;;;;;;;0.40;0.40;;;;;;;6.10;95.78;99003.09;5057940;28;20186;-67
2022/01/30 00:02:33;;;;;;;0.60;0.60;;;;;;;6.08;95.33;98999.00;5058095;28;20300;-67
2022/01/30 00:04:59;;;;;;;0.40;0.40;;;;;;;6.06;95.48;98996.50;5058043;28;20198;-66
2022/01/30 00:07:26;;;;;;;0.67;0.47;;;;;;;6.07;95.42;99000.78;5058026;28;20272;-66
2022/01/30 00:09:52;;;;;;;0.50;0.50;;;;;;;6.02;95.08;98999.66;5058026;28;20185;-66
2022/01/30 00:12:26;;;;;;;0.80;0.60;;;;;;;6.01;95.53;98990.91;5057790;28;20225;-67
2022/01/30 00:14:54;;;;;;;0.43;0.43;;;;;;;6.04;95.44;98997.66;5057888;28;20197;-67
2022/01/30 00:17:26;;;;;;;0.40;0.40;;;;;;;6.09;95.32;99012.03;5058090;28;20189;-67
2022/01/30 00:19:57;;;;;;;1.50;0.60;;;;;;;6.10;95.39;99004.94;5057809;28;20193;-67
2022/01/30 00:22:38;;;;;;;0.87;0.60;;;;;;;6.08;95.68;99010.38;5057437;28;20654;-67
2022/01/30 00:25:10;;;;;;;0.50;0.50;;;;;;;6.13;95.36;99004.59;5058101;28;20213;-67
2022/01/30 00:27:47;;;;;;;0.67;0.60;;;;;;;6.13;95.19;98999.31;5057358;28;20193;-67
2022/01/30 00:30:15;;;;;;;0.40;0.40;;;;;;;6.10;95.62;98999.66;5057556;28;20277;-67
2022/01/30 00:32:42;;;;;;;0.40;0.40;;;;;;;6.12;95.69;98995.84;5057385;28;20337;-67
2022/01/30 00:35:09;;;;;;;0.40;0.40;;;;;;;6.13;95.21;98988.75;5057499;28;20185;-67
2022/01/30 00:37:40;;;;;;;0.50;0.50;;;;;;;6.14;96.04;98982.47;5057175;28;20546;-67
2022/01/30 00:40:08;;;;;;;0.57;0.40;;;;;;;6.19;95.85;98982.81;5057444;28;20212;-67
2022/01/30 00:42:35;;;;;;;0.63;0.53;;;;;;;6.19;96.32;98980.97;5056877;28;20540;-67
2022/01/30 00:45:02;;;;;;;0.57;0.57;;;;;;;6.22;95.71;98974.53;5057336;28;20189;-67
2022/01/30 00:47:28;;;;;;;0.53;0.50;;;;;;;6.23;95.78;98955.88;5057293;28;20193;-67
2022/01/30 00:49:55;;;;;;;0.90;0.57;;;;;;;6.42;95.35;98973.97;5057232;28;20331;-67
2022/01/30 00:52:23;;;;;;;0.87;0.67;;;;;;;6.97;91.97;98971.25;5057072;28;20259;-67
2022/01/30 00:54:50;;;;;;;0.70;0.70;;;;;;;7.07;91.83;98977.97;5057122;28;20194;-67
2022/01/30 00:57:17;;;;;;;0.70;0.70;;;;;;;7.04;92.01;98966.91;5056990;28;20205;-67
2022/01/30 00:59:43;;;;;;;1.07;0.87;;;;;;;7.28;90.45;98988.72;5056676;28;20503;-67
2022/01/30 01:02:09;;;;;;;1.27;0.70;;;;;;;7.49;89.56;98988.09;5056996;28;20311;-67
2022/01/30 01:04:36;;;;;;;0.87;0.70;;;;;;;7.41;90.45;98974.91;5057057;28;20199;-67
2022/01/30 01:07:03;;;;;;;0.80;0.67;;;;;;;7.33;91.07;98983.75;5056961;28;20208;-67
2022/01/30 01:09:36;;;;;;;1.03;0.60;;;;;;;7.42;90.04;98971.28;5056646;28;20190;-67
2022/01/30 01:12:43;;;;;;;0.60;0.60;;;;;;;7.42;90.42;98980.03;5056560;28;20584;-67
2022/01/30 01:25:54;;;;;;;1.07;0.90;;;;;;;7.47;90.98;99000.69;5056038;28;20604;-67
2022/01/30 01:28:20;;;;;;;1.20;0.93;;;;;;;7.47;90.96;98992.75;5056272;28;20190;-68
2022/01/30 01:30:47;;;;;;;0.97;0.90;;;;;;;7.44;91.59;99001.03;5056652;28;20224;-67
2022/01/30 01:33:14;;;;;;;1.10;1.00;;;;;;;7.49;90.41;98988.09;5056192;28;20287;-67
2022/01/30 01:35:41;;;;;;;1.87;1.10;;;;;;;7.44;91.12;98991.28;5056479;28;20197;-67
2022/01/30 01:38:11;;;;;;;0.80;0.80;;;;;;;7.41;90.97;98991.63;5056227;28;20190;-67
2022/01/30 01:40:38;;;;;;;0.70;0.70;;;;;;;7.39;91.35;98975.13;5056457;28;20200;-67
2022/01/30 01:43:04;;;;;;;0.67;0.67;;;;;;;7.42;91.27;98982.69;5055981;28;20222;-67
2022/01/30 01:45:35;;;;;;;1.53;0.90;;;;;;;7.45;90.94;98984.16;5057004;28;20204;-67
2022/01/30 01:48:08;;;;;;;1.60;1.00;;;;;;;7.44;91.22;98975.41;5056131;28;20190;-67
2022/01/30 01:50:39;;;;;;;1.03;0.90;;;;;;;7.39;92.16;98977.75;5056438;28;20221;-67
2022/01/30 01:53:11;;;;;;;1.00;0.90;;;;;;;7.43;91.99;98979.03;5057109;28;20546;-67
2022/01/30 01:55:39;;;;;;;3.27;1.00;;;;;;;7.33;94.25;98981.09;5056386;28;20496;-67
2022/01/30 01:58:06;;;;;;;1.03;0.90;;;;;;;7.37;92.93;98987.69;5056389;28;20201;-67
2022/01/30 02:00:33;;;;;;;1.30;0.90;;;;;;;7.37;93.00;98978.94;5056055;28;20495;-67
2022/01/30 02:03:00;;;;;;;1.03;0.93;;;;;;;7.37;92.98;98971.81;5060291;28;20228;-67
2022/01/30 02:05:27;;;;;;;0.97;0.90;;;;;;;7.34;93.63;98968.69;5060080;28;20495;-67
2022/01/30 02:08:29;;;;;;;1.17;0.90;;;;;;;7.24;94.66;98968.91;5060011;28;20239;-67
2022/01/30 02:11:00;;;;;;;2.33;1.10;;;;;;;7.20;95.21;98961.53;5060139;28;20295;-68
2022/01/30 02:13:56;;;;;;;0.83;0.83;;;;;;;7.20;94.68;98969.47;5060184;28;20291;-67
2022/01/30 02:24:54;;;;;;;0.80;0.60;;;;;;;7.18;94.70;98964.34;5059800;28;20176;-67
2022/01/30 02:27:24;;;;;;;0.70;0.70;;;;;;;7.22;94.47;98970.09;5059947;28;20196;-67
2022/01/30 02:29:50;;;;;;;0.93;0.60;;;;;;;7.19;94.78;98965.97;5059479;28;20244;-67
2022/01/30 02:32:17;;;;;;;0.60;0.60;;;;;;;7.30;93.24;98968.25;5059998;28;20225;-67
2022/01/30 02:34:43;;;;;;;0.97;0.70;;;;;;;7.19;94.38;98962.53;5059742;28;20213;-67
2022/01/30 02:37:11;;;;;;;1.03;0.60;;;;;;;7.22;94.08;98970.09;5059451;28;20581;-67
2022/01/30 02:39:38;;;;;;;1.30;0.70;;;;;;;7.15;94.81;98959.41;5059683;28;20566;-67
2022/01/30 02:42:05;;;;;;;0.80;0.80;;;;;;;7.16;94.41;98962.88;5059433;28;20512;-67
2022/01/30 02:44:37;;;;;;;1.30;0.80;;;;;;;7.30;92.48;98967.41;5059330;28;20237;-67
2022/01/30 02:47:10;;;;;;;2.03;0.90;;;;;;;7.41;90.95;98981.03;5059270;28;20196;-67
2022/01/30 02:49:46;;;;;;;1.67;0.73;;;;;;;7.37;90.82;98963.88;5059221;28;20635;-67
2022/01/30 02:52:14;;;;;;;1.87;0.90;;;;;;;7.37;90.14;98958.56;5059106;28;20647;-67
2022/01/30 02:54:41;;;;;;;3.33;1.23;;;;;;;7.38;89.16;98959.41;5059114;28;20249;-67
2022/01/30 02:57:08;;;;;;;2.80;1.20;;;;;;;7.39;89.14;98955.75;5059399;28;20209;-67
2022/01/30 02:59:34;;;;;;;1.00;0.80;;;;;;;7.44;88.52;98971.94;5059072;28;20604;-67
2022/01/30 03:02:02;;;;;;;2.20;1.10;;;;;;;7.44;88.24;98964.81;5058913;28;20225;-67
2022/01/30 03:04:28;;;;;;;2.23;0.90;;;;;;;7.38;88.45;98973.44;5059288;28;20194;-67
2022/01/30 03:06:54;;;;;;;2.17;1.00;;;;;;;7.34;88.97;98958.91;5059223;28;20255;-66
2022/01/30 03:09:21;;;;;;;2.77;1.50;;;;;;;7.38;88.12;98972.63;5058850;28;20619;-67
2022/01/30 03:11:47;;;;;;;2.77;1.30;;;;;;;7.40;87.76;98976.75;5058725;28;20531;-67
2022/01/30 03:14:14;;;;;;;2.87;1.30;;;;;;;7.36;88.33;98980.75;5057507;28;20504;-67
2022/01/30 03:16:40;;;;;;;2.60;1.20;;;;;;;7.35;88.52;98980.91;5059000;28;20208;-67
2022/01/30 03:19:06;;;;;;;2.43;1.20;;;;;;;7.33;89.16;98989.03;5058970;28;20209;-67
2022/01/30 03:21:33;;;;;;;1.13;1.00;;;;;;;7.24;89.65;98997.22;5058770;28;20247;-67
2022/01/30 03:23:59;;;;;;;0.97;0.90;;;;;;;7.31;88.72;98995.50;5058749;28;20197;-67
2022/01/30 03:26:25;;;;;;;1.63;1.00;;;;;;;7.26;89.25;99001.31;5058877;28;20200;-67
2022/01/30 03:28:56;;;;;;;0.97;0.80;;;;;;;7.25;89.17;99001.50;5058731;28;20213;-67
2022/01/30 03:31:22;;;;;;;2.03;1.10;;;;;;;7.22;89.69;99002.66;5058709;28;20217;-67
2022/01/30 03:33:49;;;;;;;1.53;1.00;;;;;;;7.29;88.97;99008.88;5058617;28;20248;-67
2022/01/30 03:36:15;;;;;;;3.37;0.93;;;;;;;7.28;89.00;99014.38;5058642;28;20186;-67
2022/01/30 03:38:41;;;;;;;0.80;0.70;;;;;;;7.23;89.79;99014.06;5058620;28;20201;-67
2022/01/30 03:41:08;;;;;;;0.83;0.70;;;;;;;7.24;89.57;99015.72;5058072;28;20614;-67
2022/01/30 03:43:34;;;;;;;1.00;0.83;;;;;;;7.27;88.77;99015.34;5058254;28;20572;-67
2022/01/30 03:46:00;;;;;;;3.37;1.00;;;;;;;7.23;88.59;99011.41;5058482;28;20190;-67
2022/01/30 03:48:27;;;;;;;2.93;0.90;;;;;;;7.23;88.64;99020.16;5058405;28;20197;-67
2022/01/30 03:50:53;;;;;;;1.53;0.90;;;;;;;7.21;88.61;99022.19;5058241;28;20204;-68
2022/01/30 03:53:20;;;;;;;2.20;1.13;;;;;;;7.22;87.92;99012.41;5058219;28;20492;-67
2022/01/30 03:55:46;;;;;;;2.97;1.20;;;;;;;7.24;87.51;99016.53;5058298;28;20200;-67
2022/01/30 03:58:14;;;;;;;3.37;1.03;;;;;;;7.22;87.18;99012.41;5057928;28;20196;-67
2022/01/30 04:00:40;;;;;;;1.97;1.10;;;;;;;7.23;86.79;99019.34;5057898;28;20527;-67
2022/01/30 04:03:06;;;;;;;3.60;1.53;;;;;;;7.20;87.01;99014.41;5058133;28;20225;-67
2022/01/30 04:05:33;;;;;;;4.47;1.63;;;;;;;7.24;86.64;99021.00;5058098;28;20189;-67
2022/01/30 04:08:03;;;;;;;3.53;1.13;;;;;;;7.23;86.85;99008.75;5058021;28;20216;-67
2022/01/30 04:10:32;;;;;;;3.73;1.33;;;;;;;7.22;86.72;99017.69;5057852;28;20258;-67
2022/01/30 04:12:58;;;;;;;3.90;1.27;;;;;;;7.20;86.94;99031.09;5057796;28;20233;-67
2022/01/30 04:15:25;;;;;;;3.37;1.30;;;;;;;7.19;87.33;99041.88;5057875;28;20210;-67
2022/01/30 04:17:51;;;;;;;3.57;1.20;;;;;;;7.23;86.89;99045.78;5057845;28;20285;-66
2022/01/30 04:20:18;;;;;;;5.00;1.40;;;;;;;7.16;87.21;99032.47;5057819;28;20193;-67
2022/01/30 04:22:45;;;;;;;5.10;1.50;;;;;;;7.17;86.77;99042.03;5057404;28;20523;-67
2022/01/30 04:25:11;;;;;;;4.43;1.63;;;;;;;7.16;86.62;99044.84;5057427;28;20186;-67
2022/01/30 04:27:37;;;;;;;2.20;1.43;;;;;;;7.17;86.52;99047.31;5057623;28;20189;-67
2022/01/30 04:30:06;;;;;;;3.80;1.70;;;;;;;7.13;86.79;99040.72;5057626;28;20201;-67
2022/01/30 04:32:33;;;;;;;5.10;1.90;;;;;;;7.09;86.30;99038.59;5057216;28;20530;-66
2022/01/30 04:35:10;;;;;;;4.40;1.60;;;;;;;7.10;85.64;99029.69;5057456;28;20327;-67
2022/01/30 04:37:50;;;;;;;8.77;2.40;;;;;;;7.03;86.00;99036.66;5057111;28;20588;-67
2022/01/30 04:40:39;;;;;;;5.70;2.20;;;;;;;6.98;86.02;99041.63;5057467;28;20592;-67
2022/01/30 04:57:01;;;;;;;11.97;2.53;;;;;;;6.88;86.22;99049.75;5049576;28;20604;-67
2022/01/30 04:59:51;;;;;;;5.70;2.33;;;;;;;6.84;86.10;99050.28;5056832;28;20584;-67
2022/01/30 05:02:39;;;;;;;6.00;2.10;;;;;;;6.87;85.33;99047.31;5056719;28;20283;-67
2022/01/30 05:05:24;;;;;;;6.23;2.33;;;;;;;6.76;85.75;99052.94;5056829;28;20208;-67
2022/01/30 05:07:51;;;;;;;6.70;2.30;;;;;;;6.78;84.80;99050.97;5056828;28;20201;-66
2022/01/30 05:10:17;;;;;;;8.37;2.20;;;;;;;6.76;84.43;99055.59;5056852;28;20490;-68
2022/01/30 05:12:49;;;;;;;9.37;2.40;;;;;;;6.74;84.63;99057.59;5056584;28;20233;-67
2022/01/30 05:15:17;;;;;;;6.43;2.10;;;;;;;6.64;85.07;99049.84;5056510;28;20205;-67
2022/01/30 05:17:44;;;;;;;6.20;2.20;;;;;;;6.61;85.07;99052.03;5056825;28;20193;-67
2022/01/30 05:20:11;;;;;;;7.27;2.13;;;;;;;6.63;85.01;99057.94;5056747;28;20203;-66
2022/01/30 05:22:38;;;;;;;5.03;2.00;;;;;;;6.59;85.49;99068.03;5056401;28;20223;-66
2022/01/30 05:25:05;;;;;;;5.63;2.23;;;;;;;6.50;86.00;99068.22;5056437;28;20573;-66
2022/01/30 05:27:32;;;;;;;7.03;2.50;;;;;;;6.54;85.25;99074.81;5056666;28;20201;-67
2022/01/30 05:29:58;;;;;;;6.80;2.70;;;;;;;6.41;86.15;99077.16;5056384;28;20586;-67
2022/01/30 05:32:25;;;;;;;7.03;2.47;;;;;;;6.39;85.72;99085.25;5056614;28;20220;-67
2022/01/30 05:34:52;;;;;;;5.53;2.20;;;;;;;6.42;85.22;99071.69;5056470;28;20216;-67
2022/01/30 05:37:20;;;;;;;7.87;2.63;;;;;;;6.46;85.27;99090.66;5055910;28;20193;-67
2022/01/30 05:39:47;;;;;;;5.57;2.70;;;;;;;6.34;85.80;99095.47;5038756;28;20200;-66
2022/01/30 05:42:14;;;;;;;6.77;2.73;;;;;;;6.39;85.39;99103.75;5056314;28;20229;-66
2022/01/30 05:44:46;;;;;;;5.47;2.23;;;;;;;6.51;84.12;99101.59;5056477;28;20292;-67
2022/01/30 05:47:21;;;;;;;5.27;2.00;;;;;;;6.49;84.18;99100.91;5056488;28;20205;-66
2022/01/30 05:49:48;;;;;;;5.70;2.20;;;;;;;6.52;84.65;99111.16;5056215;28;20526;-67
2022/01/30 05:52:15;;;;;;;7.43;3.00;;;;;;;6.55;84.02;99124.00;5056060;28;20535;-66
2022/01/30 05:54:43;;;;;;;8.90;2.90;;;;;;;6.50;84.83;99118.41;5056343;28;20217;-67
2022/01/30 05:57:09;;;;;;;6.93;2.30;;;;;;;6.49;84.80;99122.03;5056353;28;20200;-67
2022/01/30 05:59:36;;;;;;;11.20;2.70;;;;;;;6.45;85.15;99126.84;5056069;28;20581;-67
2022/01/30 06:02:02;;;;;;;9.97;2.70;;;;;;;6.40;85.45;99130.97;5055950;28;20658;-68
2022/01/30 06:04:28;;;;;;;7.73;2.43;;;;;;;6.30;86.34;99136.44;5056334;28;20196;-68
2022/01/30 06:06:56;;;;;;;12.03;2.90;;;;;;;6.20;87.22;99142.88;5055945;28;20193;-67
2022/01/30 06:09:22;;;;;;;8.43;2.70;;;;;;;6.25;86.57;99133.44;5056192;28;20542;-67
2022/01/30 06:11:49;;;;;;;9.20;2.93;;;;;;;6.27;85.91;99142.03;5056151;28;20238;-68
2022/01/30 06:14:17;;;;;;;9.57;3.03;;;;;;;6.31;85.32;99142.53;5056095;28;20213;-67
2022/01/30 06:16:44;;;;;;;6.30;2.47;;;;;;;6.28;85.60;99148.97;5055803;28;20205;-67
2022/01/30 06:19:10;;;;;;;8.07;2.20;;;;;;;6.28;85.03;99153.41;5056044;28;20197;-67
2022/01/30 06:21:37;;;;;;;8.40;2.67;;;;;;;6.26;83.59;99161.53;5056022;28;20233;-67
2022/01/30 06:24:03;;;;;;;8.70;3.20;;;;;;;6.29;82.68;99166.47;5055724;28;20186;-66
2022/01/30 06:26:30;;;;;;;7.80;2.80;;;;;;;6.24;82.26;99173.25;5056042;28;20194;-67
2022/01/30 06:28:56;;;;;;;8.53;2.63;;;;;;;6.23;82.37;99167.13;5055742;28;20196;-67
2022/01/30 06:31:23;;;;;;;8.93;2.30;;;;;;;6.16;82.63;99178.50;5055589;28;20228;-67
2022/01/30 06:33:50;;;;;;;8.23;2.23;;;;;;;6.06;83.73;99177.84;5055914;28;20193;-67
2022/01/30 06:36:16;;;;;;;7.70;2.40;;;;;;;6.03;82.60;99186.09;5055976;28;20190;-68
2022/01/30 06:38:42;;;;;;;5.40;2.77;;;;;;;5.95;83.35;99193.97;5055878;28;20190;-67
2022/01/30 06:41:09;;;;;;;8.27;2.53;;;;;;;5.95;83.14;99191.34;5055724;28;20216;-67
2022/01/30 06:43:35;;;;;;;6.97;2.53;;;;;;;5.94;83.18;99193.19;5055804;28;20197;-67
2022/01/30 06:46:03;;;;;;;8.50;2.43;;;;;;;5.91;83.17;99190.00;5055842;28;20185;-67
2022/01/30 06:48:29;;;;;;;7.40;2.80;;;;;;;5.89;82.83;99194.63;5058402;28;20194;-67
2022/01/30 06:50:56;;;;;;;6.80;2.20;;;;;;;5.83;83.69;99198.75;5059017;28;20626;-67
2022/01/30 06:53:24;;;;;;;8.67;2.50;;;;;;;5.77;83.99;99191.44;5059398;28;20256;-67
2022/01/30 06:55:51;;;;;;;8.13;2.17;;;;;;;5.80;83.78;99190.28;5059081;28;20559;-66
2022/01/30 06:58:18;;;;;;;5.50;2.30;;;;;;;5.69;83.57;99190.56;5059422;28;20193;-67
2022/01/30 07:00:44;;;;;;;11.13;2.77;;;;;;;5.63;84.32;99193.88;5059357;28;20194;-67
2022/01/30 07:03:10;;;;;;;10.13;2.40;;;;;;;5.62;84.16;99202.78;5059267;28;20225;-67
2022/01/30 07:05:37;;;;;;;7.13;2.10;;;;;;;5.59;84.12;99203.09;5059239;28;20219;-66
2022/01/30 07:08:03;;;;;;;10.73;2.43;;;;;;;5.60;83.97;99205.56;5058845;28;20576;-67
2022/01/30 07:10:30;;;;;;;7.37;2.30;;;;;;;5.68;82.36;99212.69;5059141;28;20196;-67
2022/01/30 07:12:56;;;;;;;7.07;2.40;;;;;;;5.66;82.87;99219.94;5059020;28;20225;-67
2022/01/30 07:15:22;;;;;;;14.57;3.10;;;;;;;5.62;82.70;99229.16;5058904;28;20224;-67
2022/01/30 07:17:49;;;;;;;11.07;2.50;;;;;;;5.56;83.33;99224.53;5059021;28;20304;-67
2022/01/30 07:20:15;;;;;;;9.87;2.50;;;;;;;5.53;83.64;99228.31;5058972;28;20200;-66
2022/01/30 07:22:41;;;;;;;9.47;2.60;;;;;;;5.61;83.57;99238.06;5058834;28;20222;-67
2022/01/30 07:25:08;;;;;;;9.10;2.30;;;;;;;5.63;83.15;99236.91;5058606;28;20607;-67
2022/01/30 07:27:36;;;;;;;7.67;2.47;;;;;;;5.61;84.38;99245.97;5058504;28;20624;-67
2022/01/30 07:30:04;;;;;;;9.67;2.30;;;;;;;5.68;82.29;99250.44;5058831;28;20200;-67
2022/01/30 07:32:30;;;;;;;9.47;2.53;;;;;;;5.72;82.20;99250.94;5058710;28;20232;-67
2022/01/30 07:34:57;;;;;;;8.60;2.70;;;;;;;5.70;82.47;99256.38;5058502;28;20213;-67
2022/01/30 07:37:24;;;;;;;10.07;2.47;;;;;;;5.62;83.33;99264.28;5058504;28;20221;-67
2022/01/30 07:39:50;;;;;;;5.50;2.43;;;;;;;5.66;83.21;99268.22;5058618;28;20255;-67
2022/01/30 07:42:18;;;;;;;8.37;2.57;;;;;;;5.70;83.22;99268.75;5058077;28;20239;-67
2022/01/30 07:44:45;;;;;;;11.57;2.97;;;;;;;5.73;83.32;99266.63;5058428;28;20185;-67
2022/01/30 07:47:12;;;;;;;9.70;3.07;;;;;;;5.75;83.34;99271.75;5058431;28;20190;-67
2022/01/30 07:49:38;;;;;;;11.03;3.03;;;;;;;5.80;83.62;99265.06;5057963;28;20600;-67
2022/01/30 07:52:05;;;;;;;9.40;2.60;;;;;;;5.86;83.63;99271.47;5058146;28;20312;-67
2022/01/30 07:54:34;;;;;;;11.33;3.17;;;;;;;5.84;83.64;99266.34;5058189;28;20213;-67
2022/01/30 07:57:00;;;;;;;12.70;3.50;;;;;;;5.82;83.69;99267.50;5058187;28;20193;-67
2022/01/30 07:59:27;;;;;;;7.67;3.00;;;;;;;5.83;82.79;99285.81;5057558;28;20190;-67
2022/01/30 08:01:53;;;;;;;10.23;2.87;;;;;;;5.81;83.56;99279.06;5057991;28;20228;-68
2022/01/30 08:04:20;;;;;;;10.53;2.47;;;;;;;5.74;82.54;99281.47;5058027;28;20227;-67
2022/01/30 08:06:46;;;;;;;9.63;2.83;;;;;;;5.65;83.98;99284.25;5057772;28;20190;-67
2022/01/30 08:09:13;;;;;;;13.90;3.00;;;;;;;5.63;82.38;99280.94;5057970;28;20199;-67
2022/01/30 08:11:39;;;;;;;7.63;2.63;;;;;;;5.60;82.70;99287.34;5057922;28;20225;-67
2022/01/30 08:14:05;;;;;;;12.07;2.90;;;;;;;5.57;82.42;99287.66;5058437;28;20201;-67
2022/01/30 08:16:32;;;;;;;9.00;2.90;;;;;;;5.59;82.04;99290.13;5057764;28;20226;-67
2022/01/30 08:18:58;;;;;;;11.23;3.30;;;;;;;5.61;81.92;99288.19;5057792;28;20205;-67
2022/01/30 08:21:24;;;;;;;9.60;2.80;;;;;;;5.60;81.96;99286.50;5057675;28;20227;-67
2022/01/30 08:23:51;;;;;;;15.27;3.00;;;;;;;5.65;81.91;99286.88;5057332;28;20251;-66
2022/01/30 08:26:17;;;;;;;5.30;2.70;;;;;;;5.62;81.58;99287.19;5057366;28;20528;-67
2022/01/30 08:28:43;;;;;;;7.33;2.60;;;;;;;5.68;80.97;99279.47;5057640;28;20190;-67
2022/01/30 08:31:10;;;;;;;13.30;3.07;;;;;;;5.65;81.36;99276.34;5057580;28;20279;-67
2022/01/30 08:33:36;;;;;;;7.30;2.10;;;;;;;5.70;79.96;99274.03;5057250;28;20185;-67
2022/01/30 08:36:03;;;;;;;10.40;2.70;;;;;;;5.67;80.54;99264.63;5056968;28;20607;-67
2022/01/30 08:38:29;;;;;;;11.97;3.13;;;;;;;5.68;79.37;99262.81;5057345;28;20204;-66
2022/01/30 08:40:56;;;;;;;7.63;2.50;;;;;;;5.63;79.31;99260.66;5056814;28;20209;-67
2022/01/30 08:43:22;;;;;;;13.00;3.07;;;;;;;5.61;78.33;99265.25;5056793;28;20491;-67
2022/01/30 08:45:50;;;;;;;9.90;2.50;;;;;;;5.61;78.56;99259.97;5057472;28;20186;-67
2022/01/30 08:48:18;;;;;;;9.63;2.93;;;;;;;5.64;76.99;99253.56;5056964;28;20193;-67
2022/01/30 08:50:45;;;;;;;10.27;2.57;;;;;;;5.58;76.43;99254.19;5057185;28;20186;-67
2022/01/30 08:53:12;;;;;;;9.63;3.17;;;;;;;5.55;76.39;99257.97;5056766;28;20226;-67
2022/01/30 08:55:38;;;;;;;10.70;2.67;;;;;;;5.58;76.90;99257.66;5056745;28;20619;-67
2022/01/30 08:58:07;;;;;;;8.70;2.40;;;;;;;5.60;77.06;99268.03;5057490;28;20197;-67
2022/01/30 09:00:36;;;;;;;11.63;2.83;;;;;;;5.60;76.72;99260.13;5056880;28;20232;-67
2022/01/30 09:03:04;;;;;;;9.00;2.33;;;;;;;5.69;76.34;99251.25;5056341;28;20275;-66
2022/01/30 09:05:31;;;;;;;7.80;2.70;;;;;;;5.77;76.55;99259.22;5056716;28;20189;-66
2022/01/30 09:07:58;;;;;;;10.70;2.83;;;;;;;5.78;75.99;99258.22;5056636;28;20193;-67
2022/01/30 09:10:25;;;;;;;9.53;2.87;;;;;;;5.73;75.12;99257.88;5055949;28;20189;-67
2022/01/30 09:12:51;;;;;;;15.07;3.60;;;;;;;5.68;75.85;99250.44;5056364;28;20221;-67
2022/01/30 09:15:18;;;;;;;15.30;2.80;;;;;;;5.79;75.69;99259.91;5056501;28;20213;-67
2022/01/30 09:17:45;;;;;;;8.37;2.57;;;;;;;5.96;75.23;99258.97;5056512;28;20288;-67
2022/01/30 09:20:12;;;;;;;7.80;2.73;;;;;;;5.92;73.73;99263.75;5056270;28;20465;-67
2022/01/30 09:22:39;;;;;;;9.27;3.00;;;;;;;5.97;74.63;99258.81;5056107;28;20304;-67
2022/01/30 09:25:07;;;;;;;12.80;2.90;;;;;;;6.09;73.86;99251.41;5055858;28;20599;-67
2022/01/30 09:27:34;;;;;;;9.40;2.63;;;;;;;6.10;74.29;99267.09;5055770;28;20189;-66
2022/01/30 09:30:00;;;;;;;8.97;2.90;;;;;;;6.18;74.95;99271.56;5056373;28;20204;-67
2022/01/30 09:32:27;;;;;;;11.87;2.83;;;;;;;6.01;75.25;99261.97;5055721;28;20228;-66
2022/01/30 09:34:53;;;;;;;10.67;2.13;;;;;;;5.85;74.78;99275.13;5055738;28;20213;-67
2022/01/30 09:37:20;;;;;;;9.87;2.90;;;;;;;5.95;74.40;99281.09;5055693;28;20639;-67
2022/01/30 09:39:46;;;;;;;10.40;2.50;;;;;;;6.09;74.71;99273.38;5055717;28;20598;-67
2022/01/30 09:42:14;;;;;;;7.20;2.77;;;;;;;6.39;74.89;99264.88;5055538;28;20235;-66
2022/01/30 09:44:41;;;;;;;14.47;3.20;;;;;;;6.46;73.90;99265.00;5055686;28;20572;-67
2022/01/30 09:47:13;;;;;;;9.43;2.60;;;;;;;6.28;74.39;99256.41;5055700;28;20580;-67
2022/01/30 09:49:41;;;;;;;14.17;3.20;;;;;;;6.29;74.87;99261.53;5055609;28;20196;-67
2022/01/30 09:52:09;;;;;;;11.43;3.13;;;;;;;6.30;74.63;99268.50;5055877;28;20225;-67
2022/01/30 09:54:36;;;;;;;11.37;3.77;;;;;;;6.40;75.40;99269.16;5055890;28;20251;-67
2022/01/30 09:57:03;;;;;;;12.63;2.90;;;;;;;6.40;73.08;99286.81;5055686;28;20193;-67
2022/01/30 09:59:29;;;;;;;11.83;3.07;;;;;;;6.20;72.62;99282.81;5055832;28;20204;-66
2022/01/30 10:01:55;;;;;;;10.53;2.87;;;;;;;6.22;72.75;99286.09;5055446;28;20229;-67
2022/01/30 10:04:22;;;;;;;7.30;2.37;;;;;;;6.21;71.59;99287.94;5055515;28;20559;-67
2022/01/30 10:06:51;;;;;;;13.03;2.27;;;;;;;6.25;72.16;99291.88;5056040;28;20189;-66
2022/01/30 10:09:28;;;;;;;10.53;3.37;;;;;;;6.57;71.15;99296.41;5055692;28;20189;-67
2022/01/30 10:12:08;;;;;;;8.37;3.00;;;;;;;6.74;71.02;99296.25;5055872;28;20256;-67
2022/01/30 10:14:35;;;;;;;11.37;2.97;;;;;;;6.64;70.60;99303.53;5055681;28;20228;-67
2022/01/30 10:17:01;;;;;;;12.60;3.00;;;;;;;6.76;70.26;99298.75;5055242;28;20213;-67
2022/01/30 10:19:28;;;;;;;9.90;2.83;;;;;;;6.77;69.43;99303.88;5055477;28;20200;-67
2022/01/30 10:22:09;;;;;;;10.60;2.77;;;;;;;6.79;69.35;99314.28;5055802;28;20217;-67
2022/01/30 10:24:41;;;;;;;8.63;2.83;;;;;;;6.95;70.26;99316.91;5059385;28;20189;-67
2022/01/30 10:27:24;;;;;;;9.57;2.60;;;;;;;6.74;71.65;99314.75;5059386;28;20576;-67
2022/01/30 10:30:01;;;;;;;11.57;2.67;;;;;;;6.68;68.77;99325.16;5059517;28;20506;-67
2022/01/30 10:32:28;;;;;;;10.60;2.57;;;;;;;6.50;66.61;99317.38;5059510;28;20263;-67
2022/01/30 10:35:12;;;;;;;8.60;2.60;;;;;;;6.50;66.80;99327.09;5059198;28;20577;-67
2022/01/30 10:37:40;;;;;;;10.97;2.70;;;;;;;6.50;66.94;99325.31;5059156;28;20196;-67
2022/01/30 10:40:15;;;;;;;9.27;2.70;;;;;;;6.36;66.42;99340.94;5059387;28;20197;-67
2022/01/30 10:42:48;;;;;;;14.87;2.77;;;;;;;6.37;66.03;99340.78;5058994;28;20594;-67
2022/01/30 10:45:14;;;;;;;10.03;2.83;;;;;;;6.12;67.13;99336.44;5059271;28;20186;-67
2022/01/30 10:47:43;;;;;;;9.23;2.50;;;;;;;5.97;65.50;99338.00;5059264;28;20193;-67
2022/01/30 10:50:12;;;;;;;6.77;2.50;;;;;;;6.14;67.13;99341.53;5059261;28;20197;-66
2022/01/30 10:52:56;;;;;;;9.17;2.57;;;;;;;6.23;65.53;99345.84;5059215;28;20217;-67
2022/01/30 10:55:44;;;;;;;9.73;2.40;;;;;;;6.56;64.99;99342.31;5059031;28;20296;-66
2022/01/30 10:58:15;;;;;;;9.03;2.80;;;;;;;6.29;64.91;99351.31;5058736;28;20603;-67
2022/01/30 11:00:45;;;;;;;7.83;2.33;;;;;;;6.16;64.42;99345.66;5059028;28;20194;-67
2022/01/30 11:03:32;;;;;;;7.60;2.33;;;;;;;6.21;64.68;99347.84;5058805;28;20228;-67
2022/01/30 11:06:01;;;;;;;9.23;2.50;;;;;;;6.36;64.18;99354.16;5058673;28;20488;-67
2022/01/30 11:08:30;;;;;;;8.10;2.07;;;;;;;6.32;65.48;99343.09;5058759;28;20200;-67
2022/01/30 11:11:15;;;;;;;9.70;2.60;;;;;;;6.54;63.86;99334.56;5058962;28;20190;-67
2022/01/30 11:13:59;;;;;;;7.87;2.53;;;;;;;6.40;63.79;99323.78;5059172;28;20224;-67
2022/01/30 11:19:13;;;;;;;8.60;2.50;;;;;;;6.79;64.44;99327.50;5058723;28;20231;-67
2022/01/30 11:21:41;;;;;;;11.17;2.77;;;;;;;6.93;63.30;99318.91;5058568;28;20308;-67
2022/01/30 11:24:09;;;;;;;9.47;2.40;;;;;;;6.65;63.94;99318.38;5058646;28;20197;-67
2022/01/30 11:26:36;;;;;;;14.13;3.37;;;;;;;6.47;63.88;99316.88;5058217;28;20234;-67
2022/01/30 11:29:03;;;;;;;12.67;2.43;;;;;;;6.49;64.58;99317.53;5059514;28;20197;-67
2022/01/30 11:31:30;;;;;;;11.67;2.60;;;;;;;6.89;63.96;99322.88;5058193;28;20662;-67
2022/01/30 11:33:58;;;;;;;8.63;2.07;;;;;;;7.08;62.76;99312.78;5057307;28;20194;-67
2022/01/30 11:36:24;;;;;;;14.90;3.43;;;;;;;7.44;61.97;99313.22;5057955;28;20209;-67
2022/01/30 11:38:51;;;;;;;12.97;2.87;;;;;;;7.28;61.36;99318.56;5057962;28;20509;-67
2022/01/30 11:41:20;;;;;;;15.07;3.30;;;;;;;7.33;63.84;99300.34;5058043;28;20233;-67
2022/01/30 11:44:20;;;;;;;12.83;2.93;;;;;;;7.24;62.70;99304.81;5058260;28;20193;-67
2022/01/30 11:46:51;;;;;;;10.13;2.57;;;;;;;7.38;63.07;99298.84;5058241;28;20296;-67
2022/01/30 11:49:18;;;;;;;12.83;2.93;;;;;;;7.79;61.80;99294.28;5058211;28;20197;-67
2022/01/30 11:51:49;;;;;;;10.43;2.77;;;;;;;7.48;60.58;99280.97;5058130;28;20225;-67
2022/01/30 11:54:34;;;;;;;6.07;2.43;;;;;;;7.43;62.00;99275.34;5058190;28;20247;-66
2022/01/30 11:57:00;;;;;;;12.17;2.77;;;;;;;7.33;61.10;99271.25;5058569;28;20217;-67
2022/01/30 11:59:40;;;;;;;11.50;2.87;;;;;;;7.43;60.71;99266.59;5057828;28;20194;-66
2022/01/30 12:02:28;;;;;;;12.40;2.67;;;;;;;7.55;59.90;99263.41;5057641;28;20224;-67
2022/01/30 12:05:05;;;;;;;8.43;2.40;;;;;;;7.48;60.01;99261.63;5057958;28;20194;-67
2022/01/30 12:07:39;;;;;;;10.60;2.40;;;;;;;7.31;59.78;99260.00;5057773;28;20190;-67
2022/01/30 12:10:17;;;;;;;7.57;2.50;;;;;;;7.19;60.84;99245.50;5057286;28;20581;-68
2022/01/30 12:13:06;;;;;;;7.23;2.53;;;;;;;6.93;62.10;99248.34;5057665;28;20221;-68
2022/01/30 12:15:41;;;;;;;7.30;2.40;;;;;;;6.94;61.84;99249.16;5057713;28;20198;-67
2022/01/30 12:18:12;;;;;;;12.97;2.70;;;;;;;6.75;61.67;99242.41;5057566;28;20189;-67
2022/01/30 12:20:53;;;;;;;10.90;2.80;;;;;;;6.83;62.37;99254.81;5057467;28;20190;-67
2022/01/30 12:23:32;;;;;;;13.43;3.00;;;;;;;6.70;62.81;99249.19;5057452;28;20198;-67